sensor_id;sensor_type;location;lat;lon;timestamp;pressure;altitude;pressure_sealevel;temperature;humidity
10145;BME280;5113;41.822;23.564;2023-06-10T00:02:43;-11384.81;;;16.27;100.00
10145;BME280;5113;41.822;23.564;2023-06-10T00:05:50;-11377.50;;;16.01;100.00
10145;BME280;5113;41.822;23.564;2023-06-10T00:08:58;-11366.50;;;15.61;100.00
10145;BME280;5113;41.822;23.564;2023-06-10T00:12:06;-11380.47;;;16.11;100.00
10145;BME280;5113;41.822;23.564;2023-06-10T00:15:14;-11366.09;;;15.60;100.00
10145;BME280;5113;41.822;23.564;2023-06-10T00:18:21;-11366.50;;;15.61;100.00
10145;BME280;5113;41.822;23.564;2023-06-10T00:21:27;-11359.75;;;15.37;100.00
10145;BME280;5113;41.822;23.564;2023-06-10T00:24:35;-11364.81;;;15.55;100.00
10145;BME280;5113;41.822;23.564;2023-06-10T00:27:42;-11374.97;;;15.92;100.00
10145;BME280;5113;41.822;23.564;2023-06-10T00:30:49;-11380.59;;;16.12;100.00
10145;BME280;5113;41.822;23.564;2023-06-10T00:33:55;-11380.19;;;16.10;100.00
10145;BME280;5113;41.822;23.564;2023-06-10T00:37:04;-11368.47;;;15.68;100.00
10145;BME280;5113;41.822;23.564;2023-06-10T00:40:12;-11373.28;;;15.85;100.00
10145;BME280;5113;41.822;23.564;2023-06-10T00:43:19;-11376.66;;;15.98;100.00
10145;BME280;5113;41.822;23.564;2023-06-10T00:46:26;-11360.88;;;15.41;100.00
10145;BME280;5113;41.822;23.564;2023-06-10T00:49:33;-11365.38;;;15.57;100.00
10145;BME280;5113;41.822;23.564;2023-06-10T00:52:41;-11373.00;;;15.84;100.00
10145;BME280;5113;41.822;23.564;2023-06-10T00:55:52;-11371.56;;;15.79;100.00
10145;BME280;5113;41.822;23.564;2023-06-10T00:58:59;-11372.44;;;15.82;100.00
10145;BME280;5113;41.822;23.564;2023-06-10T01:02:05;-11372.72;;;15.83;100.00
10145;BME280;5113;41.822;23.564;2023-06-10T01:05:12;-11370.44;;;15.75;100.00
10145;BME280;5113;41.822;23.564;2023-06-10T01:08:27;-11370.72;;;15.76;100.00
10145;BME280;5113;41.822;23.564;2023-06-10T01:11:40;-11367.50;;;15.65;100.00
10145;BME280;5113;41.822;23.564;2023-06-10T01:14:51;-11368.63;;;15.69;100.00
10145;BME280;5113;41.822;23.564;2023-06-10T01:17:59;-11364.97;;;15.56;100.00
10145;BME280;5113;41.822;23.564;2023-06-10T01:21:07;-11362.00;;;15.45;100.00
10145;BME280;5113;41.822;23.564;2023-06-10T01:24:15;-11363.13;;;15.49;100.00
10145;BME280;5113;41.822;23.564;2023-06-10T01:27:25;-11363.69;;;15.51;100.00
10145;BME280;5113;41.822;23.564;2023-06-10T01:30:38;-11367.34;;;15.64;100.00
10145;BME280;5113;41.822;23.564;2023-06-10T01:33:51;-11369.03;;;15.70;100.00
10145;BME280;5113;41.822;23.564;2023-06-10T01:36:59;-11362.41;;;15.46;100.00
10145;BME280;5113;41.822;23.564;2023-06-10T01:40:09;-11354.81;;;15.19;100.00
10145;BME280;5113;41.822;23.564;2023-06-10T01:43:16;-11362.13;;;15.45;100.00
10145;BME280;5113;41.822;23.564;2023-06-10T01:46:22;-11366.50;;;15.61;100.00
10145;BME280;5113;41.822;23.564;2023-06-10T01:49:28;-11365.25;;;15.57;100.00
10145;BME280;5113;41.822;23.564;2023-06-10T01:52:34;-11368.06;;;15.67;100.00
10145;BME280;5113;41.822;23.564;2023-06-10T01:55:43;-11368.63;;;15.69;100.00
10145;BME280;5113;41.822;23.564;2023-06-10T01:58:50;-11370.44;;;15.75;100.00
10145;BME280;5113;41.822;23.564;2023-06-10T02:01:59;-11369.03;;;15.70;100.00
10145;BME280;5113;41.822;23.564;2023-06-10T02:05:06;-11362.28;;;15.46;100.00
10145;BME280;5113;41.822;23.564;2023-06-10T02:08:13;-11344.81;;;14.83;100.00
10145;BME280;5113;41.822;23.564;2023-06-10T02:11:21;-11338.63;;;14.61;100.00
10145;BME280;5113;41.822;23.564;2023-06-10T02:14:27;-11334.81;;;14.47;100.00
10145;BME280;5113;41.822;23.564;2023-06-10T02:17:34;-11340.59;;;14.68;100.00
10145;BME280;5113;41.822;23.564;2023-06-10T02:20:41;-11343.41;;;14.78;100.00
10145;BME280;5113;41.822;23.564;2023-06-10T02:23:47;-11356.22;;;15.24;100.00
10145;BME280;5113;41.822;23.564;2023-06-10T02:26:55;-11357.63;;;15.29;100.00
10145;BME280;5113;41.822;23.564;2023-06-10T02:30:02;-11358.06;;;15.31;100.00
10145;BME280;5113;41.822;23.564;2023-06-10T02:33:09;-11356.22;;;15.24;100.00
10145;BME280;5113;41.822;23.564;2023-06-10T02:36:15;-11351.84;;;15.08;100.00
10145;BME280;5113;41.822;23.564;2023-06-10T02:39:22;-11361.56;;;15.43;100.00
10145;BME280;5113;41.822;23.564;2023-06-10T02:42:29;-11353.13;;;15.13;100.00
10145;BME280;5113;41.822;23.564;2023-06-10T02:45:36;-11352.00;;;15.09;100.00
10145;BME280;5113;41.822;23.564;2023-06-10T02:48:43;-11349.03;;;14.98;100.00
10145;BME280;5113;41.822;23.564;2023-06-10T03:05:59;-11394.97;;;16.64;100.00
10145;BME280;5113;41.822;23.564;2023-06-10T03:09:06;-11393.00;;;16.57;100.00
10145;BME280;5113;41.822;23.564;2023-06-10T03:12:13;-11393.28;;;16.58;100.00
10145;BME280;5113;41.822;23.564;2023-06-10T03:15:19;-11389.91;;;16.45;100.00
10145;BME280;5113;41.822;23.564;2023-06-10T03:18:27;-11380.03;;;16.10;100.00
10145;BME280;5113;41.822;23.564;2023-06-10T03:21:35;-11373.84;;;15.88;100.00
10145;BME280;5113;41.822;23.564;2023-06-10T03:24:42;-11392.72;;;16.56;100.00
10145;BME280;5113;41.822;23.564;2023-06-10T03:27:48;-11395.25;;;16.65;100.00
10145;BME280;5113;41.822;23.564;2023-06-10T03:30:54;-11402.28;;;16.90;100.00
10145;BME280;5113;41.822;23.564;2023-06-10T03:34:01;-11392.84;;;16.56;100.00
10145;BME280;5113;41.822;23.564;2023-06-10T03:37:08;-11393.00;;;16.57;100.00
10145;BME280;5113;41.822;23.564;2023-06-10T03:40:14;-11387.63;;;16.37;100.00
10145;BME280;5113;41.822;23.564;2023-06-10T03:43:20;-11392.16;;;16.54;100.00
10145;BME280;5113;41.822;23.564;2023-06-10T03:46:27;-11393.28;;;16.58;100.00
10145;BME280;5113;41.822;23.564;2023-06-10T03:49:33;-11386.94;;;16.35;100.00
10145;BME280;5113;41.822;23.564;2023-06-10T03:52:42;-11388.63;;;16.41;100.00
10145;BME280;5113;41.822;23.564;2023-06-10T03:55:50;-11385.66;;;16.30;100.00
10145;BME280;5113;41.822;23.564;2023-06-10T03:58:56;-11392.56;;;16.55;100.00
10145;BME280;5113;41.822;23.564;2023-06-10T04:02:02;-11392.56;;;16.55;100.00
10145;BME280;5113;41.822;23.564;2023-06-10T04:05:09;-11391.31;;;16.50;100.00
10145;BME280;5113;41.822;23.564;2023-06-10T04:08:17;-11397.78;;;16.74;100.00
10145;BME280;5113;41.822;23.564;2023-06-10T04:11:23;-11402.56;;;16.91;100.00
10145;BME280;5113;41.822;23.564;2023-06-10T04:14:29;-11401.44;;;16.87;100.00
10145;BME280;5113;41.822;23.564;2023-06-10T04:17:36;-11396.38;;;16.69;100.00
10145;BME280;5113;41.822;23.564;2023-06-10T04:20:42;-11409.19;;;17.15;100.00
10145;BME280;5113;41.822;23.564;2023-06-10T04:23:50;-11406.25;;;17.04;100.00
10145;BME280;5113;41.822;23.564;2023-06-10T04:26:57;-11410.47;;;17.20;100.00
10145;BME280;5113;41.822;23.564;2023-06-10T04:30:03;-11416.53;;;17.41;100.00
10145;BME280;5113;41.822;23.564;2023-06-10T04:33:10;-11415.81;;;17.39;100.00
10145;BME280;5113;41.822;23.564;2023-06-10T04:36:16;-11428.94;;;17.86;100.00
10145;BME280;5113;41.822;23.564;2023-06-10T04:39:24;-11415.25;;;17.37;100.00
10145;BME280;5113;41.822;23.564;2023-06-10T04:42:31;-11424.28;;;17.69;100.00
10145;BME280;5113;41.822;23.564;2023-06-10T04:45:37;-11427.38;;;17.80;100.00
10145;BME280;5113;41.822;23.564;2023-06-10T04:48:44;-11423.31;;;17.66;100.00
10145;BME280;5113;41.822;23.564;2023-06-10T04:51:52;-11430.63;;;17.92;100.00
10145;BME280;5113;41.822;23.564;2023-06-10T04:55:00;-11425.00;;;17.72;100.00
10145;BME280;5113;41.822;23.564;2023-06-10T04:58:07;-11439.66;;;18.25;100.00
10145;BME280;5113;41.822;23.564;2023-06-10T05:01:13;-11439.50;;;18.24;100.00
10145;BME280;5113;41.822;23.564;2023-06-10T05:04:19;-11462.34;;;19.06;100.00
10145;BME280;5113;41.822;23.564;2023-06-10T05:07:26;-11452.75;;;18.72;100.00
10145;BME280;5113;41.822;23.564;2023-06-10T05:10:33;-11449.38;;;18.60;100.00
10145;BME280;5113;41.822;23.564;2023-06-10T05:13:41;-11468.69;;;19.29;100.00
10145;BME280;5113;41.822;23.564;2023-06-10T05:16:49;-11468.28;;;19.28;100.00
10145;BME280;5113;41.822;23.564;2023-06-10T05:19:55;-11475.34;;;19.53;100.00
10145;BME280;5113;41.822;23.564;2023-06-10T05:23:02;-11450.50;;;18.64;100.00
10145;BME280;5113;41.822;23.564;2023-06-10T05:26:10;-11463.47;;;19.10;100.00
10145;BME280;5113;41.822;23.564;2023-06-10T05:29:16;-11475.63;;;19.54;100.00
10145;BME280;5113;41.822;23.564;2023-06-10T05:32:23;-11466.16;;;19.20;100.00
10145;BME280;5113;41.822;23.564;2023-06-10T05:35:29;-11467.16;;;19.24;100.00
10145;BME280;5113;41.822;23.564;2023-06-10T05:38:35;-11470.53;;;19.36;100.00
10145;BME280;5113;41.822;23.564;2023-06-10T05:41:43;-11485.47;;;19.90;100.00
10145;BME280;5113;41.822;23.564;2023-06-10T05:44:49;-11489.28;;;20.03;100.00
10145;BME280;5113;41.822;23.564;2023-06-10T05:47:55;-11479.56;;;19.68;100.00
10145;BME280;5113;41.822;23.564;2023-06-10T05:51:01;-11476.59;;;19.58;100.00
10145;BME280;5113;41.822;23.564;2023-06-10T05:54:08;-11476.75;;;19.58;100.00
10145;BME280;5113;41.822;23.564;2023-06-10T05:57:15;-11495.34;;;20.25;100.00
10145;BME280;5113;41.822;23.564;2023-06-10T06:00:22;-11507.50;;;20.69;98.59
10145;BME280;5113;41.822;23.564;2023-06-10T06:03:29;-11503.69;;;20.55;98.67
10145;BME280;5113;41.822;23.564;2023-06-10T06:06:38;-11500.84;;;20.45;100.00
10145;BME280;5113;41.822;23.564;2023-06-10T06:09:44;-11527.81;;;21.42;94.00
10145;BME280;5113;41.822;23.564;2023-06-10T06:12:52;-11539.09;;;21.83;88.87
10145;BME280;5113;41.822;23.564;2023-06-10T06:15:59;-11543.03;;;21.97;87.07
10145;BME280;5113;41.822;23.564;2023-06-10T06:19:06;-11524.28;;;21.29;88.96
10145;BME280;5113;41.822;23.564;2023-06-10T06:22:12;-11535.84;;;21.71;85.86
10145;BME280;5113;41.822;23.564;2023-06-10T06:25:18;-11535.41;;;21.69;84.40
10145;BME280;5113;41.822;23.564;2023-06-10T06:28:26;-11547.56;;;22.13;86.62
10145;BME280;5113;41.822;23.564;2023-06-10T06:31:34;-11519.75;;;21.13;90.47
10145;BME280;5113;41.822;23.564;2023-06-10T06:34:41;-11519.19;;;21.11;89.79
10145;BME280;5113;41.822;23.564;2023-06-10T06:37:47;-11535.28;;;21.69;87.31
10145;BME280;5113;41.822;23.564;2023-06-10T06:40:53;-11549.25;;;22.19;82.30
10145;BME280;5113;41.822;23.564;2023-06-10T06:44:01;-11533.31;;;21.62;85.87
10145;BME280;5113;41.822;23.564;2023-06-10T06:47:08;-11565.06;;;22.76;81.13
10145;BME280;5113;41.822;23.564;2023-06-10T06:50:14;-11553.34;;;22.34;81.15
10145;BME280;5113;41.822;23.564;2023-06-10T06:53:21;-11564.78;;;22.75;81.99
10145;BME280;5113;41.822;23.564;2023-06-10T06:56:27;-11586.22;;;23.52;71.66
10145;BME280;5113;41.822;23.564;2023-06-10T06:59:35;-11604.84;;;24.19;71.05
10145;BME280;5113;41.822;23.564;2023-06-10T07:02:41;-11575.50;;;23.14;69.17
10145;BME280;5113;41.822;23.564;2023-06-10T07:05:47;-11578.88;;;23.26;69.35
10145;BME280;5113;41.822;23.564;2023-06-10T07:08:53;-11597.09;;;23.91;68.41
10145;BME280;5113;41.822;23.564;2023-06-10T07:12:00;-11605.56;;;24.22;64.95
10145;BME280;5113;41.822;23.564;2023-06-10T07:15:08;-11585.09;;;23.48;69.79
10145;BME280;5113;41.822;23.564;2023-06-10T07:18:15;-11591.59;;;23.71;63.93
10145;BME280;5113;41.822;23.564;2023-06-10T07:21:22;-11610.09;;;24.38;63.14
10145;BME280;5113;41.822;23.564;2023-06-10T07:24:29;-11580.72;;;23.32;68.20
10145;BME280;5113;41.822;23.564;2023-06-10T07:27:35;-11607.81;;;24.30;63.98
10145;BME280;5113;41.822;23.564;2023-06-10T07:30:44;-11606.13;;;24.24;63.52
10145;BME280;5113;41.822;23.564;2023-06-10T07:33:50;-11629.28;;;25.07;59.11
10145;BME280;5113;41.822;23.564;2023-06-10T07:36:57;-11592.72;;;23.76;62.71
10145;BME280;5113;41.822;23.564;2023-06-10T07:40:04;-11611.91;;;24.45;60.95
10145;BME280;5113;41.822;23.564;2023-06-10T07:43:11;-11585.66;;;23.50;63.11
10145;BME280;5113;41.822;23.564;2023-06-10T07:46:19;-11616.44;;;24.61;59.83
10145;BME280;5113;41.822;23.564;2023-06-10T07:49:26;-11618.97;;;24.70;58.51
10145;BME280;5113;41.822;23.564;2023-06-10T07:52:32;-11619.69;;;24.73;58.89
10145;BME280;5113;41.822;23.564;2023-06-10T07:55:38;-11620.09;;;24.74;59.70
10145;BME280;5113;41.822;23.564;2023-06-10T07:58:44;-11632.69;;;25.19;57.28
10145;BME280;5113;41.822;23.564;2023-06-10T08:01:53;-11648.34;;;25.76;55.76
10145;BME280;5113;41.822;23.564;2023-06-10T08:04:59;-11622.94;;;24.84;57.67
10145;BME280;5113;41.822;23.564;2023-06-10T08:08:05;-11631.69;;;25.16;56.54
10145;BME280;5113;41.822;23.564;2023-06-10T08:11:11;-11620.38;;;24.75;57.12
10145;BME280;5113;41.822;23.564;2023-06-10T08:14:18;-11646.50;;;25.69;53.53
10145;BME280;5113;41.822;23.564;2023-06-10T08:17:26;-11652.31;;;25.90;55.46
10145;BME280;5113;41.822;23.564;2023-06-10T08:20:32;-11647.94;;;25.74;54.81
10145;BME280;5113;41.822;23.564;2023-06-10T08:23:38;-11651.03;;;25.85;53.67
10145;BME280;5113;41.822;23.564;2023-06-10T08:26:45;-11681.81;;;26.96;51.75
10145;BME280;5113;41.822;23.564;2023-06-10T08:29:51;-11650.59;;;25.84;53.73
10145;BME280;5113;41.822;23.564;2023-06-10T08:32:59;-11636.19;;;25.32;57.12
10145;BME280;5113;41.822;23.564;2023-06-10T08:36:06;-11635.50;;;25.29;58.25
10145;BME280;5113;41.822;23.564;2023-06-10T08:39:12;-11653.44;;;25.94;53.62
10145;BME280;5113;41.822;23.564;2023-06-10T08:42:22;-11641.00;;;25.49;54.43
10145;BME280;5113;41.822;23.564;2023-06-10T08:45:30;-11669.09;;;26.50;52.53
10145;BME280;5113;41.822;23.564;2023-06-10T08:48:42;-11669.97;;;26.53;52.21
10145;BME280;5113;41.822;23.564;2023-06-10T08:51:50;-11651.16;;;25.86;54.71
10145;BME280;5113;41.822;23.564;2023-06-10T08:54:59;-11669.53;;;26.52;51.13
10145;BME280;5113;41.822;23.564;2023-06-10T08:58:06;-11699.75;;;27.60;50.25
10145;BME280;5113;41.822;23.564;2023-06-10T09:01:13;-11693.25;;;27.37;50.52
10145;BME280;5113;41.822;23.564;2023-06-10T09:04:24;-11698.19;;;27.55;48.21
10145;BME280;5113;41.822;23.564;2023-06-10T09:07:31;-11661.34;;;26.22;50.34
10145;BME280;5113;41.822;23.564;2023-06-10T09:10:40;-11720.66;;;28.36;48.65
10145;BME280;5113;41.822;23.564;2023-06-10T09:13:47;-11639.88;;;25.45;54.22
10145;BME280;5113;41.822;23.564;2023-06-10T09:16:53;-11612.47;;;24.47;55.82
10145;BME280;5113;41.822;23.564;2023-06-10T09:20:04;-11685.63;;;27.10;48.94
10145;BME280;5113;41.822;23.564;2023-06-10T09:23:15;-11681.97;;;26.96;51.56
10145;BME280;5113;41.822;23.564;2023-06-10T09:26:28;-11680.13;;;26.90;51.00
10145;BME280;5113;41.822;23.564;2023-06-10T09:29:45;-11649.75;;;25.81;52.52
10145;BME280;5113;41.822;23.564;2023-06-10T09:32:53;-11681.38;;;26.94;50.24
10145;BME280;5113;41.822;23.564;2023-06-10T09:36:03;-11725.19;;;28.52;46.22
10145;BME280;5113;41.822;23.564;2023-06-10T09:39:14;-11742.56;;;29.14;45.50
10145;BME280;5113;41.822;23.564;2023-06-10T09:42:21;-11718.97;;;28.30;44.08
10145;BME280;5113;41.822;23.564;2023-06-10T09:45:29;-11694.94;;;27.43;46.23
10145;BME280;5113;41.822;23.564;2023-06-10T09:48:41;-11697.34;;;27.52;47.50
10145;BME280;5113;41.822;23.564;2023-06-10T09:51:53;-11657.94;;;26.10;50.83
10145;BME280;5113;41.822;23.564;2023-06-10T09:55:01;-11663.59;;;26.30;50.10
10145;BME280;5113;41.822;23.564;2023-06-10T09:58:08;-11675.59;;;26.74;49.91
10145;BME280;5113;41.822;23.564;2023-06-10T10:01:15;-11646.66;;;25.70;52.47
10145;BME280;5113;41.822;23.564;2023-06-10T10:04:23;-11633.38;;;25.22;54.31
10145;BME280;5113;41.822;23.564;2023-06-10T10:07:33;-11616.28;;;24.60;59.17
10145;BME280;5113;41.822;23.564;2023-06-10T10:10:39;-11604.00;;;24.16;61.41
10145;BME280;5113;41.822;23.564;2023-06-10T10:13:48;-11632.25;;;25.18;60.51
10145;BME280;5113;41.822;23.564;2023-06-10T10:16:55;-11626.31;;;24.96;61.13
10145;BME280;5113;41.822;23.564;2023-06-10T10:20:06;-11629.44;;;25.08;59.26
10145;BME280;5113;41.822;23.564;2023-06-10T10:23:17;-11644.38;;;25.61;57.18
10145;BME280;5113;41.822;23.564;2023-06-10T10:26:28;-11668.69;;;26.49;54.22
10145;BME280;5113;41.822;23.564;2023-06-10T10:29:38;-11657.94;;;26.10;55.01
10145;BME280;5113;41.822;23.564;2023-06-10T10:32:52;-11709.63;;;27.96;49.32
10145;BME280;5113;41.822;23.564;2023-06-10T10:36:02;-11709.22;;;27.94;50.30
10145;BME280;5113;41.822;23.564;2023-06-10T10:39:10;-11689.59;;;27.24;48.90
10145;BME280;5113;41.822;23.564;2023-06-10T10:42:17;-11668.13;;;26.47;53.98
10145;BME280;5113;41.822;23.564;2023-06-10T10:45:27;-11657.25;;;26.08;56.95
10145;BME280;5113;41.822;23.564;2023-06-10T10:48:35;-11637.91;;;25.38;60.52
10145;BME280;5113;41.822;23.564;2023-06-10T10:51:56;-11625.59;;;24.94;62.17
10145;BME280;5113;41.822;23.564;2023-06-10T10:55:12;-11635.06;;;25.28;63.93
10145;BME280;5113;41.822;23.564;2023-06-10T10:58:24;-11601.19;;;24.06;67.72
10145;BME280;5113;41.822;23.564;2023-06-10T11:01:39;-11594.69;;;23.83;69.23
10145;BME280;5113;41.822;23.564;2023-06-10T11:04:47;-11627.72;;;25.01;67.06
10145;BME280;5113;41.822;23.564;2023-06-10T11:07:55;-11630.13;;;25.10;66.98
10145;BME280;5113;41.822;23.564;2023-06-10T11:11:17;-11624.63;;;24.90;65.71
10145;BME280;5113;41.822;23.564;2023-06-10T11:14:28;-11626.19;;;24.96;65.60
10145;BME280;5113;41.822;23.564;2023-06-10T11:17:35;-11640.16;;;25.46;62.38
10145;BME280;5113;41.822;23.564;2023-06-10T11:20:51;-11656.81;;;26.06;60.83
10145;BME280;5113;41.822;23.564;2023-06-10T11:23:58;-11662.75;;;26.27;61.95
10145;BME280;5113;41.822;23.564;2023-06-10T11:27:17;-11688.44;;;27.20;59.17
10145;BME280;5113;41.822;23.564;2023-06-10T11:30:25;-11704.28;;;27.77;57.36
10145;BME280;5113;41.822;23.564;2023-06-10T11:33:32;-11647.06;;;25.71;60.04
10145;BME280;5113;41.822;23.564;2023-06-10T11:36:40;-11615.72;;;24.58;65.57
10145;BME280;5113;41.822;23.564;2023-06-10T11:39:47;-11608.53;;;24.32;69.88
10145;BME280;5113;41.822;23.564;2023-06-10T11:42:55;-11598.66;;;23.97;72.18
10145;BME280;5113;41.822;23.564;2023-06-10T11:46:01;-11578.31;;;23.24;75.87
10145;BME280;5113;41.822;23.564;2023-06-10T11:49:08;-11595.13;;;23.84;74.52
10145;BME280;5113;41.822;23.564;2023-06-10T11:52:14;-11583.13;;;23.41;73.18
10145;BME280;5113;41.822;23.564;2023-06-10T11:55:21;-11568.31;;;22.88;70.17
10145;BME280;5113;41.822;23.564;2023-06-10T11:58:28;-11579.72;;;23.29;68.92
10145;BME280;5113;41.822;23.564;2023-06-10T12:01:35;-11590.75;;;23.68;67.43
10145;BME280;5113;41.822;23.564;2023-06-10T12:04:46;-11591.03;;;23.69;67.40
10145;BME280;5113;41.822;23.564;2023-06-10T12:08:08;-11583.97;;;23.44;67.30
10145;BME280;5113;41.822;23.564;2023-06-10T12:11:14;-11587.50;;;23.57;69.68
10145;BME280;5113;41.822;23.564;2023-06-10T12:14:54;-11573.66;;;23.07;71.23
10145;BME280;5113;41.822;23.564;2023-06-10T12:18:01;-11577.91;;;23.22;70.20
10145;BME280;5113;41.822;23.564;2023-06-10T12:21:16;-11563.06;;;22.69;73.66
10145;BME280;5113;41.822;23.564;2023-06-10T12:24:23;-11552.34;;;22.30;83.04
10145;BME280;5113;41.822;23.564;2023-06-10T12:27:30;-11539.94;;;21.86;88.82
10145;BME280;5113;41.822;23.564;2023-06-10T12:30:38;-11542.75;;;21.96;89.64
10145;BME280;5113;41.822;23.564;2023-06-10T12:33:44;-11535.00;;;21.68;90.87
10145;BME280;5113;41.822;23.564;2023-06-10T12:36:54;-11539.78;;;21.85;92.21
10145;BME280;5113;41.822;23.564;2023-06-10T12:40:02;-11535.56;;;21.70;100.00
10145;BME280;5113;41.822;23.564;2023-06-10T12:43:09;-11537.97;;;21.79;100.00
10145;BME280;5113;41.822;23.564;2023-06-10T12:46:17;-11523.00;;;21.25;100.00
10145;BME280;5113;41.822;23.564;2023-06-10T12:49:24;-11517.06;;;21.03;100.00
10145;BME280;5113;41.822;23.564;2023-06-10T12:52:31;-11498.88;;;20.38;100.00
10145;BME280;5113;41.822;23.564;2023-06-10T12:55:38;-11490.69;;;20.08;100.00
10145;BME280;5113;41.822;23.564;2023-06-10T12:58:45;-11492.81;;;20.16;100.00
10145;BME280;5113;41.822;23.564;2023-06-10T13:01:53;-11515.53;;;20.98;100.00
10145;BME280;5113;41.822;23.564;2023-06-10T13:05:00;-11507.22;;;20.68;100.00
10145;BME280;5113;41.822;23.564;2023-06-10T13:08:08;-11505.22;;;20.61;100.00
10145;BME280;5113;41.822;23.564;2023-06-10T13:11:15;-11506.62;;;20.66;100.00
10145;BME280;5113;41.822;23.564;2023-06-10T13:14:21;-11503.41;;;20.54;100.00
10145;BME280;5113;41.822;23.564;2023-06-10T13:17:29;-11505.22;;;20.61;100.00
10145;BME280;5113;41.822;23.564;2023-06-10T13:20:35;-11513.97;;;20.92;100.00
10145;BME280;5113;41.822;23.564;2023-06-10T13:23:44;-11519.19;;;21.11;100.00
10145;BME280;5113;41.822;23.564;2023-06-10T13:26:50;-11517.34;;;21.04;100.00
10145;BME280;5113;41.822;23.564;2023-06-10T13:29:57;-11517.94;;;21.06;100.00
10145;BME280;5113;41.822;23.564;2023-06-10T13:33:04;-11518.78;;;21.09;100.00
10145;BME280;5113;41.822;23.564;2023-06-10T13:36:11;-11518.50;;;21.08;100.00
10145;BME280;5113;41.822;23.564;2023-06-10T13:39:17;-11518.06;;;21.07;100.00
10145;BME280;5113;41.822;23.564;2023-06-10T13:42:23;-11523.72;;;21.27;100.00
10145;BME280;5113;41.822;23.564;2023-06-10T13:45:31;-11534.28;;;21.65;100.00
10145;BME280;5113;41.822;23.564;2023-06-10T13:48:38;-11533.44;;;21.62;100.00
10145;BME280;5113;41.822;23.564;2023-06-10T13:51:45;-11546.28;;;22.08;100.00
10145;BME280;5113;41.822;23.564;2023-06-10T13:54:51;-11552.06;;;22.29;100.00
10145;BME280;5113;41.822;23.564;2023-06-10T13:57:57;-11549.69;;;22.21;100.00
10145;BME280;5113;41.822;23.564;2023-06-10T14:01:04;-11549.25;;;22.19;100.00
10145;BME280;5113;41.822;23.564;2023-06-10T14:04:12;-11547.00;;;22.11;96.30
10145;BME280;5113;41.822;23.564;2023-06-10T14:07:19;-11541.06;;;21.90;100.00
10145;BME280;5113;41.822;23.564;2023-06-10T14:10:25;-11546.16;;;22.08;99.54
10145;BME280;5113;41.822;23.564;2023-06-10T14:13:32;-11533.72;;;21.63;98.14
10145;BME280;5113;41.822;23.564;2023-06-10T14:16:38;-11535.56;;;21.70;92.98
10145;BME280;5113;41.822;23.564;2023-06-10T14:19:48;-11536.84;;;21.74;91.94
10145;BME280;5113;41.822;23.564;2023-06-10T14:22:55;-11543.88;;;22.00;93.18
10145;BME280;5113;41.822;23.564;2023-06-10T14:26:01;-11548.41;;;22.16;94.88
10145;BME280;5113;41.822;23.564;2023-06-10T14:29:10;-11530.91;;;21.53;93.34
10145;BME280;5113;41.822;23.564;2023-06-10T14:32:19;-11540.63;;;21.88;89.10
10145;BME280;5113;41.822;23.564;2023-06-10T14:35:27;-11547.69;;;22.14;85.31
10145;BME280;5113;41.822;23.564;2023-06-10T14:38:34;-11555.47;;;22.42;84.90
10145;BME280;5113;41.822;23.564;2023-06-10T14:41:40;-11543.19;;;21.97;90.41
10145;BME280;5113;41.822;23.564;2023-06-10T14:44:47;-11536.41;;;21.73;95.36
10145;BME280;5113;41.822;23.564;2023-06-10T14:47:54;-11509.19;;;20.75;100.00
10145;BME280;5113;41.822;23.564;2023-06-10T14:51:02;-11525.84;;;21.35;98.03
10145;BME280;5113;41.822;23.564;2023-06-10T14:54:08;-11520.19;;;21.15;98.39
10145;BME280;5113;41.822;23.564;2023-06-10T14:57:15;-11545.88;;;22.07;95.26
10145;BME280;5113;41.822;23.564;2023-06-10T15:00:21;-11538.25;;;21.80;93.81
10145;BME280;5113;41.822;23.564;2023-06-10T15:03:28;-11523.72;;;21.27;96.81
10145;BME280;5113;41.822;23.564;2023-06-10T15:06:36;-11542.34;;;21.94;94.50
10145;BME280;5113;41.822;23.564;2023-06-10T15:09:43;-11537.41;;;21.77;96.06
10145;BME280;5113;41.822;23.564;2023-06-10T15:12:50;-11548.69;;;22.17;97.44
10145;BME280;5113;41.822;23.564;2023-06-10T15:16:00;-11554.63;;;22.38;91.98
10145;BME280;5113;41.822;23.564;2023-06-10T15:19:08;-11538.53;;;21.81;94.13
10145;BME280;5113;41.822;23.564;2023-06-10T15:22:16;-11569.28;;;22.91;88.37
10145;BME280;5113;41.822;23.564;2023-06-10T15:25:22;-11641.00;;;25.49;71.78
10145;BME280;5113;41.822;23.564;2023-06-10T15:28:36;-11634.94;;;25.27;68.44
10145;BME280;5113;41.822;23.564;2023-06-10T15:31:42;-11645.53;;;25.65;66.69
10145;BME280;5113;41.822;23.564;2023-06-10T15:34:48;-11571.28;;;22.98;80.12
10145;BME280;5113;41.822;23.564;2023-06-10T15:37:59;-11555.31;;;22.41;89.08
10145;BME280;5113;41.822;23.564;2023-06-10T15:41:05;-11542.75;;;21.96;94.39
10145;BME280;5113;41.822;23.564;2023-06-10T15:44:12;-11557.16;;;22.48;90.15
10145;BME280;5113;41.822;23.564;2023-06-10T15:47:18;-11555.47;;;22.42;88.95
10145;BME280;5113;41.822;23.564;2023-06-10T15:50:25;-11544.16;;;22.01;92.29
10145;BME280;5113;41.822;23.564;2023-06-10T15:53:33;-11518.78;;;21.09;99.24
10145;BME280;5113;41.822;23.564;2023-06-10T15:56:40;-11523.84;;;21.28;100.00
10145;BME280;5113;41.822;23.564;2023-06-10T15:59:47;-11521.59;;;21.20;100.00
10145;BME280;5113;41.822;23.564;2023-06-10T16:02:53;-11530.34;;;21.51;100.00
10145;BME280;5113;41.822;23.564;2023-06-10T16:06:00;-11521.88;;;21.21;100.00
10145;BME280;5113;41.822;23.564;2023-06-10T16:09:08;-11521.03;;;21.18;100.00
10145;BME280;5113;41.822;23.564;2023-06-10T16:12:14;-11530.91;;;21.53;100.00
10145;BME280;5113;41.822;23.564;2023-06-10T16:15:20;-11525.41;;;21.33;100.00
10145;BME280;5113;41.822;23.564;2023-06-10T16:18:27;-11531.59;;;21.56;100.00
10145;BME280;5113;41.822;23.564;2023-06-10T16:21:33;-11518.22;;;21.07;100.00
10145;BME280;5113;41.822;23.564;2023-06-10T16:24:43;-11523.44;;;21.26;100.00
10145;BME280;5113;41.822;23.564;2023-06-10T16:27:50;-11516.09;;;21.00;100.00
10145;BME280;5113;41.822;23.564;2023-06-10T16:30:56;-11512.28;;;20.86;100.00